createdAt,value
2022-08-23T00:01:01.432Z,14.34
2022-08-23T00:02:10.148Z,14.35
2022-08-23T00:03:26.468Z,14.38
2022-08-23T00:04:35.034Z,14.39
2022-08-23T00:05:38.793Z,14.40
2022-08-23T00:06:44.363Z,14.41
2022-08-23T00:07:48.758Z,14.41
2022-08-23T00:08:56.187Z,14.42
2022-08-23T00:09:59.112Z,14.40
2022-08-23T00:11:02.041Z,14.40
2022-08-23T00:12:07.902Z,14.40
2022-08-23T00:13:11.057Z,14.41
2022-08-23T00:14:17.194Z,14.41
2022-08-23T00:15:20.885Z,14.41
2022-08-23T00:16:23.942Z,14.42
2022-08-23T00:17:34.427Z,14.42
2022-08-23T00:18:38.006Z,14.43
2022-08-23T00:19:41.826Z,14.41
2022-08-23T00:20:44.810Z,14.41
2022-08-23T00:21:49.008Z,14.40
2022-08-23T00:22:52.404Z,14.38
2022-08-23T00:23:55.668Z,14.37
2022-08-23T00:24:58.545Z,14.35
2022-08-23T00:26:02.943Z,14.34
2022-08-23T00:27:11.208Z,14.33
2022-08-23T00:28:15.012Z,14.32
2022-08-23T00:29:18.918Z,14.32
2022-08-23T00:30:22.006Z,14.33
2022-08-23T00:31:25.361Z,14.34
2022-08-23T00:32:30.324Z,14.35
2022-08-23T00:33:33.368Z,14.37
2022-08-23T00:34:37.381Z,14.39
2022-08-23T00:35:40.279Z,14.40
2022-08-23T00:36:45.228Z,14.41
2022-08-23T00:37:51.591Z,14.32
2022-08-23T00:39:11.793Z,14.42
2022-08-23T00:40:16.382Z,14.42
2022-08-23T00:41:19.519Z,14.44
2022-08-23T00:42:44.369Z,14.45
2022-08-23T00:44:05.961Z,14.45
2022-08-23T00:45:29.572Z,14.44
2022-08-23T00:46:58.076Z,14.44
2022-08-23T00:48:01.905Z,14.45
2022-08-23T00:49:07.721Z,14.46
2022-08-23T00:50:23.357Z,14.47
2022-08-23T00:51:50.720Z,14.48
2022-08-23T00:53:14.988Z,14.48
2022-08-23T00:54:18.762Z,14.49
2022-08-23T00:55:25.448Z,14.50
2022-08-23T00:56:31.188Z,14.50
2022-08-23T00:57:35.089Z,14.51
2022-08-23T00:58:38.545Z,14.52
2022-08-23T00:59:45.028Z,14.52
2022-08-23T01:00:50.327Z,14.53
2022-08-23T01:01:53.375Z,14.53
2022-08-23T01:02:57.991Z,14.54
2022-08-23T01:04:04.830Z,14.52
2022-08-23T01:05:08.846Z,14.52
2022-08-23T01:06:14.673Z,14.52
2022-08-23T01:07:23.590Z,14.48
2022-08-23T01:08:27.514Z,14.45
2022-08-23T01:09:31.892Z,14.44
2022-08-23T01:10:42.133Z,14.44
2022-08-23T01:11:51.551Z,14.41
2022-08-23T01:13:04.324Z,14.45
2022-08-23T01:14:27.641Z,14.46
2022-08-23T01:15:36.708Z,14.47
2022-08-23T01:16:43.674Z,14.48
2022-08-23T01:17:51.043Z,14.47
2022-08-23T01:18:57.345Z,14.50
2022-08-23T01:20:06.487Z,14.51
2022-08-23T01:21:32.222Z,14.52
2022-08-23T01:22:41.657Z,14.53
2022-08-23T01:23:49.680Z,14.55
2022-08-23T01:25:07.382Z,14.56
2022-08-23T01:26:13.158Z,14.56
2022-08-23T01:27:16.242Z,14.55
2022-08-23T01:28:19.233Z,14.55
2022-08-23T01:29:22.233Z,14.56
2022-08-23T01:30:28.385Z,14.57
2022-08-23T01:31:31.537Z,14.58
2022-08-23T01:32:37.653Z,14.58
2022-08-23T01:33:41.681Z,14.58
2022-08-23T01:34:44.730Z,14.58
2022-08-23T01:35:56.371Z,14.57
2022-08-23T01:36:59.477Z,14.56
2022-08-23T01:38:02.512Z,14.57
2022-08-23T01:39:06.084Z,14.58
2022-08-23T01:40:09.873Z,14.59
2022-08-23T01:41:13.124Z,14.59
2022-08-23T01:42:16.303Z,14.60
2022-08-23T01:43:21.663Z,14.59
2022-08-23T01:44:24.587Z,14.57
2022-08-23T01:45:31.107Z,14.53
2022-08-23T01:46:34.233Z,14.56
2022-08-23T01:47:37.364Z,14.54
2022-08-23T01:48:40.468Z,14.54
2022-08-23T01:49:43.413Z,14.54
2022-08-23T01:50:46.539Z,14.55
2022-08-23T01:51:49.551Z,14.55
2022-08-23T01:52:52.837Z,14.56
2022-08-23T01:53:55.883Z,14.57
2022-08-23T01:55:02.117Z,14.57
2022-08-23T01:56:05.869Z,14.57
2022-08-23T01:57:11.214Z,14.58
2022-08-23T01:58:14.318Z,14.58
2022-08-23T01:59:17.292Z,14.59
2022-08-23T02:00:22.199Z,14.59
2022-08-23T02:01:25.300Z,14.59
2022-08-23T02:02:30.763Z,14.58
2022-08-23T02:03:34.191Z,14.57
2022-08-23T02:04:37.099Z,14.57
2022-08-23T02:05:40.969Z,14.57
2022-08-23T02:06:44.018Z,14.58
2022-08-23T02:07:47.487Z,14.59
2022-08-23T02:09:03.413Z,14.59
2022-08-23T02:10:07.584Z,14.61
2022-08-23T02:11:12.735Z,14.61
2022-08-23T02:12:15.848Z,14.63
2022-08-23T02:13:19.025Z,14.58
2022-08-23T02:14:22.082Z,14.58
2022-08-23T02:15:25.059Z,14.57
2022-08-23T02:16:29.900Z,14.56
2022-08-23T02:17:33.161Z,14.56
2022-08-23T02:18:36.647Z,14.54
2022-08-23T02:19:40.013Z,14.50
2022-08-23T02:20:49.984Z,14.45
2022-08-23T02:21:53.274Z,14.41
2022-08-23T02:22:57.246Z,14.41
2022-08-23T02:24:03.459Z,14.39
2022-08-23T02:25:08.102Z,14.40
2022-08-23T02:26:11.051Z,14.37
2022-08-23T02:27:15.931Z,14.38
2022-08-23T02:28:19.900Z,14.35
2022-08-23T02:29:24.181Z,14.33
2022-08-23T02:30:27.269Z,14.33
2022-08-23T02:31:30.337Z,14.34
2022-08-23T02:32:34.344Z,14.36
2022-08-23T02:33:37.679Z,14.37
2022-08-23T02:34:44.014Z,14.36
2022-08-23T02:35:54.243Z,14.37
2022-08-23T02:36:57.617Z,14.38
2022-08-23T02:38:05.062Z,14.38
2022-08-23T02:39:08.945Z,14.40
2022-08-23T02:40:12.114Z,14.35
2022-08-23T02:41:16.927Z,14.36
2022-08-23T02:42:19.984Z,14.36
2022-08-23T02:43:22.925Z,14.35
2022-08-23T02:44:25.918Z,14.34
2022-08-23T02:45:30.161Z,14.35
2022-08-23T02:46:33.719Z,14.34
2022-08-23T02:47:37.893Z,14.34
2022-08-23T02:48:40.903Z,14.35
2022-08-23T02:49:43.916Z,14.36
2022-08-23T02:50:47.017Z,14.39
2022-08-23T02:51:49.983Z,14.40
2022-08-23T02:52:53.903Z,14.42
2022-08-23T02:53:56.933Z,14.43
2022-08-23T02:55:00.308Z,14.44
2022-08-23T02:56:06.138Z,14.46
2022-08-23T02:57:22.039Z,14.46
2022-08-23T02:58:25.615Z,14.47
2022-08-23T02:59:28.603Z,14.48
2022-08-23T03:00:31.853Z,14.49
2022-08-23T03:01:37.035Z,14.51
2022-08-23T03:02:52.360Z,14.51
2022-08-23T03:03:55.988Z,14.49
2022-08-23T03:04:58.940Z,14.47
2022-08-23T03:06:25.293Z,14.48
2022-08-23T03:07:25.322Z,14.49
2022-08-23T03:08:28.354Z,14.49
2022-08-23T03:09:31.470Z,14.50
2022-08-23T03:10:34.814Z,14.46
2022-08-23T03:11:38.554Z,14.51
2022-08-23T03:12:41.619Z,14.53
2022-08-23T03:13:46.120Z,14.51
2022-08-23T03:14:51.333Z,14.52
2022-08-23T03:15:55.610Z,14.46
2022-08-23T03:16:58.841Z,14.44
2022-08-23T03:18:01.979Z,14.44
2022-08-23T03:19:05.732Z,14.42
2022-08-23T03:20:09.342Z,14.43
2022-08-23T03:21:12.904Z,14.44
2022-08-23T03:22:15.884Z,14.45
2022-08-23T03:23:19.065Z,14.46
2022-08-23T03:24:22.191Z,14.47
2022-08-23T03:25:25.228Z,14.48
2022-08-23T03:26:28.449Z,14.41
2022-08-23T03:27:31.789Z,14.49
2022-08-23T03:28:42.713Z,14.50
2022-08-23T03:29:45.960Z,14.51
2022-08-23T03:30:49.079Z,14.52
2022-08-23T03:31:53.876Z,14.52
2022-08-23T03:32:57.405Z,14.51
2022-08-23T03:34:00.381Z,14.52
2022-08-23T03:35:04.261Z,14.52
2022-08-23T03:36:14.928Z,14.52
2022-08-23T03:37:18.292Z,14.51
2022-08-23T03:38:21.260Z,14.51
2022-08-23T03:39:24.203Z,14.51
2022-08-23T03:40:27.243Z,14.50
2022-08-23T03:41:30.188Z,14.48
2022-08-23T03:42:33.599Z,14.49
2022-08-23T03:43:37.102Z,14.49
2022-08-23T03:44:40.034Z,14.49
2022-08-23T03:45:43.356Z,14.48
2022-08-23T03:46:46.304Z,14.46
2022-08-23T03:47:49.289Z,14.45
2022-08-23T03:48:56.249Z,14.45
2022-08-23T03:49:59.455Z,14.43
2022-08-23T03:51:03.329Z,14.44
2022-08-23T03:52:07.194Z,14.41
2022-08-23T03:53:12.114Z,14.43
2022-08-23T03:54:15.529Z,14.41
2022-08-23T03:55:20.821Z,14.39
2022-08-23T03:56:46.418Z,14.38
2022-08-23T03:57:49.526Z,14.35
2022-08-23T03:58:53.259Z,14.34
2022-08-23T03:59:56.376Z,14.34
2022-08-23T04:00:59.494Z,14.35
2022-08-23T04:02:02.654Z,14.33
2022-08-23T04:03:06.104Z,14.33
2022-08-23T04:04:09.036Z,14.34
2022-08-23T04:05:12.657Z,14.34
2022-08-23T04:06:16.410Z,14.35
2022-08-23T04:07:20.975Z,14.33
2022-08-23T04:08:33.693Z,14.33
2022-08-23T04:09:38.729Z,14.32
2022-08-23T04:10:42.041Z,14.31
2022-08-23T04:11:45.733Z,14.32
2022-08-23T04:12:48.823Z,14.31
2022-08-23T04:13:52.415Z,14.30
2022-08-23T04:14:55.609Z,14.32
2022-08-23T04:15:58.737Z,14.31
2022-08-23T04:17:01.797Z,14.31
2022-08-23T04:18:05.677Z,14.32
2022-08-23T04:19:13.253Z,14.32
2022-08-23T04:20:18.042Z,14.30
2022-08-23T04:21:22.765Z,14.30
2022-08-23T04:22:26.040Z,14.32
2022-08-23T04:23:29.444Z,14.30
2022-08-23T04:24:33.080Z,14.33
2022-08-23T04:25:36.380Z,14.33
2022-08-23T04:26:40.901Z,14.31
2022-08-23T04:27:46.435Z,14.31
2022-08-23T04:28:49.450Z,14.32
2022-08-23T04:29:54.625Z,14.31
2022-08-23T04:31:00.449Z,14.31
2022-08-23T04:32:05.242Z,14.29
2022-08-23T04:33:12.567Z,14.28
2022-08-23T04:34:20.318Z,14.29
2022-08-23T04:35:23.711Z,14.27
2022-08-23T04:36:27.009Z,14.27
2022-08-23T04:37:37.508Z,14.26
2022-08-23T04:38:40.414Z,14.26
2022-08-23T04:40:02.177Z,14.24
2022-08-23T04:41:24.534Z,14.23
2022-08-23T04:42:27.670Z,14.22
2022-08-23T04:43:30.717Z,14.23
2022-08-23T04:44:36.684Z,14.23
2022-08-23T04:45:40.505Z,14.23
2022-08-23T04:46:44.136Z,14.20
2022-08-23T04:47:47.976Z,14.17
2022-08-23T04:48:50.971Z,14.18
2022-08-23T04:49:53.889Z,14.16
2022-08-23T04:50:57.447Z,14.17
2022-08-23T04:52:46.636Z,14.19
2022-08-23T04:53:49.579Z,14.20
2022-08-23T04:54:52.817Z,14.23
2022-08-23T04:55:56.114Z,14.20
2022-08-23T04:56:59.099Z,14.16
2022-08-23T04:58:02.328Z,14.15
2022-08-23T04:59:05.930Z,14.14
2022-08-23T05:00:11.049Z,14.12
2022-08-23T05:01:16.484Z,14.15
2022-08-23T05:02:21.016Z,14.14
2022-08-23T05:03:24.012Z,14.14
2022-08-23T05:04:26.949Z,14.13
2022-08-23T05:05:29.914Z,14.11
2022-08-23T05:06:33.429Z,14.10
2022-08-23T05:07:42.061Z,14.13
2022-08-23T05:08:46.049Z,14.12
2022-08-23T05:09:49.149Z,14.11
2022-08-23T05:10:52.155Z,14.12
2022-08-23T05:11:55.117Z,14.14
2022-08-23T05:12:58.217Z,14.14
2022-08-23T05:14:01.179Z,14.13
2022-08-23T05:15:04.734Z,14.13
2022-08-23T05:16:08.209Z,14.12
2022-08-23T05:17:11.177Z,14.13
2022-08-23T05:18:16.560Z,14.15
2022-08-23T05:19:19.736Z,14.13
2022-08-23T05:20:23.257Z,14.15
2022-08-23T05:21:26.360Z,14.16
2022-08-23T05:22:32.769Z,14.17
2022-08-23T05:23:35.766Z,14.17
2022-08-23T05:24:39.084Z,14.18
2022-08-23T05:25:52.512Z,14.17
2022-08-23T05:26:56.451Z,14.15
2022-08-23T05:27:59.843Z,14.14
2022-08-23T05:29:03.112Z,14.15
2022-08-23T05:30:07.064Z,14.16
2022-08-23T05:31:12.037Z,14.20
2022-08-23T05:32:14.871Z,14.19
2022-08-23T05:33:17.970Z,14.17
2022-08-23T05:34:22.582Z,14.16
2022-08-23T05:35:26.038Z,14.16
2022-08-23T05:36:29.065Z,14.17
2022-08-23T05:37:32.611Z,14.17
2022-08-23T05:38:35.731Z,14.15
2022-08-23T05:39:38.751Z,14.14
2022-08-23T05:40:41.735Z,14.14
2022-08-23T05:41:45.008Z,14.16
2022-08-23T05:42:47.910Z,14.17
2022-08-23T05:43:50.850Z,14.15
2022-08-23T05:44:53.869Z,14.19
2022-08-23T05:46:16.570Z,14.19
2022-08-23T05:47:24.615Z,14.21
2022-08-23T05:48:28.689Z,14.20
2022-08-23T05:49:31.806Z,14.20
2022-08-23T05:50:37.098Z,14.22
2022-08-23T05:51:40.269Z,14.21
2022-08-23T05:52:44.405Z,14.12
2022-08-23T05:53:50.221Z,14.24
2022-08-23T05:54:53.246Z,14.23
2022-08-23T05:55:56.494Z,14.24
2022-08-23T05:56:59.539Z,14.27
2022-08-23T05:58:02.769Z,14.27
2022-08-23T05:59:12.554Z,14.27
2022-08-23T06:00:15.906Z,14.27
2022-08-23T06:01:19.530Z,14.28
2022-08-23T06:02:22.527Z,14.28
2022-08-23T06:03:26.015Z,14.28
2022-08-23T06:04:29.029Z,14.29
2022-08-23T06:05:31.935Z,14.32
2022-08-23T06:06:37.595Z,14.35
2022-08-23T06:07:41.727Z,14.34
2022-08-23T06:08:48.664Z,14.34
2022-08-23T06:09:51.839Z,14.35
2022-08-23T06:11:05.065Z,14.37
2022-08-23T06:12:08.562Z,14.39
2022-08-23T06:13:11.593Z,14.42
2022-08-23T06:14:14.883Z,14.42
2022-08-23T06:15:19.521Z,14.42
2022-08-23T06:16:27.271Z,14.42
2022-08-23T06:17:30.280Z,14.43
2022-08-23T06:18:33.277Z,14.45
2022-08-23T06:19:37.441Z,14.45
2022-08-23T06:20:40.620Z,14.46
2022-08-23T06:21:43.931Z,14.48
2022-08-23T06:22:49.990Z,14.39
2022-08-23T06:23:55.864Z,14.46
2022-08-23T06:24:58.780Z,14.47
2022-08-23T06:26:04.729Z,14.48
2022-08-23T06:27:07.695Z,14.48
2022-08-23T06:28:10.700Z,14.47
2022-08-23T06:29:15.349Z,14.48
2022-08-23T06:30:18.317Z,14.50
2022-08-23T06:31:41.085Z,14.50
2022-08-23T06:32:44.239Z,14.51
2022-08-23T06:33:47.256Z,14.50
2022-08-23T06:34:50.342Z,14.48
2022-08-23T06:36:08.402Z,14.46
2022-08-23T06:37:12.761Z,14.46
2022-08-23T06:38:15.724Z,14.47
2022-08-23T06:39:19.389Z,14.41
2022-08-23T06:40:22.400Z,14.47
2022-08-23T06:41:25.478Z,14.48
2022-08-23T06:42:37.953Z,14.49
2022-08-23T06:43:41.687Z,14.49
2022-08-23T06:44:44.669Z,14.48
2022-08-23T06:45:54.870Z,14.49
2022-08-23T06:46:58.748Z,14.51
2022-08-23T06:48:01.823Z,14.51
2022-08-23T06:49:06.019Z,14.52
2022-08-23T06:50:09.606Z,14.53
2022-08-23T06:51:12.461Z,14.54
2022-08-23T06:52:15.989Z,14.54
2022-08-23T06:53:19.246Z,14.55
2022-08-23T06:54:23.697Z,14.53
2022-08-23T06:55:29.776Z,14.55
2022-08-23T06:56:33.230Z,14.58
2022-08-23T06:57:36.169Z,14.58
2022-08-23T06:58:39.189Z,14.59
2022-08-23T06:59:42.276Z,14.59
2022-08-23T07:00:45.348Z,14.59
2022-08-23T07:01:58.865Z,14.60
2022-08-23T07:03:02.091Z,14.62
2022-08-23T07:04:06.624Z,14.60
2022-08-23T07:05:09.657Z,14.62
2022-08-23T07:06:12.708Z,14.61
2022-08-23T07:07:16.353Z,14.62
2022-08-23T07:08:19.285Z,14.63
2022-08-23T07:09:22.564Z,14.65
2022-08-23T07:10:25.546Z,14.67
2022-08-23T07:11:31.481Z,14.67
2022-08-23T07:12:37.779Z,14.69
2022-08-23T07:13:40.819Z,14.70
2022-08-23T07:14:44.359Z,14.73
2022-08-23T07:15:50.016Z,14.74
2022-08-23T07:16:54.757Z,14.73
2022-08-23T07:17:57.904Z,14.74
2022-08-23T07:19:00.903Z,14.74
2022-08-23T07:20:04.708Z,14.75
2022-08-23T07:21:08.105Z,14.76
2022-08-23T07:22:11.405Z,14.76
2022-08-23T07:23:15.857Z,14.76
2022-08-23T07:24:18.856Z,14.77
2022-08-23T07:25:21.918Z,14.78
2022-08-23T07:26:25.632Z,14.81
2022-08-23T07:27:30.554Z,14.82
2022-08-23T07:28:33.709Z,14.84
2022-08-23T07:29:37.502Z,14.84
2022-08-23T07:30:44.982Z,14.85
2022-08-23T07:31:52.976Z,14.86
2022-08-23T07:32:56.057Z,14.85
2022-08-23T07:34:00.524Z,14.87
2022-08-23T07:35:05.375Z,14.88
2022-08-23T07:36:09.205Z,14.91
2022-08-23T07:37:15.780Z,14.91
2022-08-23T07:38:18.904Z,14.91
2022-08-23T07:39:22.854Z,14.93
2022-08-23T07:40:26.001Z,14.96
2022-08-23T07:41:32.868Z,14.98
2022-08-23T07:42:36.099Z,14.97
2022-08-23T07:43:39.700Z,14.95
2022-08-23T07:44:43.211Z,14.98
2022-08-23T07:45:48.621Z,14.99
2022-08-23T07:46:51.672Z,14.99
2022-08-23T07:47:54.594Z,14.99
2022-08-23T07:49:01.010Z,14.99
2022-08-23T07:50:04.230Z,14.96
2022-08-23T07:51:10.393Z,14.96
2022-08-23T07:52:13.826Z,14.98
2022-08-23T07:53:16.955Z,15.00
2022-08-23T07:54:40.024Z,15.00
2022-08-23T07:55:45.509Z,15.02
2022-08-23T07:56:48.834Z,15.03
2022-08-23T07:57:51.799Z,15.04
2022-08-23T07:58:54.884Z,15.06
2022-08-23T07:59:58.212Z,15.06
2022-08-23T08:01:12.179Z,15.07
2022-08-23T08:02:15.768Z,15.08
2022-08-23T08:03:19.223Z,15.12
2022-08-23T08:04:22.256Z,15.11
2022-08-23T08:05:25.388Z,15.08
2022-08-23T08:06:28.280Z,15.08
2022-08-23T08:07:31.759Z,15.07
2022-08-23T08:08:43.853Z,15.08
2022-08-23T08:09:47.398Z,15.10
2022-08-23T08:10:54.127Z,15.13
2022-08-23T08:11:57.200Z,15.10
2022-08-23T08:13:00.297Z,15.09
2022-08-23T08:14:07.643Z,15.09
2022-08-23T08:15:10.848Z,15.12
2022-08-23T08:16:25.090Z,15.13
2022-08-23T08:17:28.376Z,15.15
2022-08-23T08:18:31.329Z,15.17
2022-08-23T08:19:34.269Z,15.20
2022-08-23T08:20:37.308Z,15.21
2022-08-23T08:21:41.987Z,15.19
2022-08-23T08:22:48.555Z,15.20
2022-08-23T08:23:53.285Z,15.21
2022-08-23T08:24:56.487Z,15.21
2022-08-23T08:26:03.566Z,15.22
2022-08-23T08:27:06.578Z,15.23
2022-08-23T08:28:15.142Z,15.25
2022-08-23T08:29:18.829Z,15.27
2022-08-23T08:30:21.856Z,15.28
2022-08-23T08:31:25.530Z,15.27
2022-08-23T08:32:32.443Z,15.29
2022-08-23T08:33:35.416Z,15.30
2022-08-23T08:34:38.884Z,15.29
2022-08-23T08:35:41.960Z,15.31
2022-08-23T08:36:47.507Z,15.30
2022-08-23T08:37:50.912Z,15.31
2022-08-23T08:38:58.814Z,15.32
2022-08-23T08:40:04.294Z,15.33
2022-08-23T08:41:21.167Z,15.34
2022-08-23T08:42:27.350Z,15.37
2022-08-23T08:43:33.307Z,15.39
2022-08-23T08:44:39.397Z,15.41
2022-08-23T08:45:58.896Z,15.41
2022-08-23T08:47:16.497Z,15.43
2022-08-23T08:48:22.524Z,15.43
2022-08-23T08:49:43.146Z,15.45
2022-08-23T08:50:50.481Z,15.46
2022-08-23T08:51:56.928Z,15.47
2022-08-23T08:53:09.554Z,15.48
2022-08-23T08:54:14.534Z,15.49
2022-08-23T08:55:30.424Z,15.50
2022-08-23T08:56:34.904Z,15.51
2022-08-23T08:57:43.376Z,15.54
2022-08-23T08:58:50.961Z,15.53
2022-08-23T09:00:11.631Z,15.54
2022-08-23T09:01:16.119Z,15.56
2022-08-23T09:02:33.000Z,15.57
2022-08-23T09:03:36.629Z,15.58
2022-08-23T09:04:39.828Z,15.59
2022-08-23T09:06:01.779Z,15.59
2022-08-23T09:07:22.801Z,15.61
2022-08-23T09:08:56.600Z,15.63
2022-08-23T09:10:14.574Z,15.65
2022-08-23T09:11:36.258Z,15.66
2022-08-23T09:12:42.458Z,15.68
2022-08-23T09:13:48.271Z,15.65
2022-08-23T09:14:51.226Z,15.68
2022-08-23T09:15:54.243Z,15.68
2022-08-23T09:17:05.694Z,15.70
2022-08-23T09:18:13.813Z,15.70
2022-08-23T09:19:17.773Z,15.71
2022-08-23T09:20:23.149Z,15.70
2022-08-23T09:21:28.597Z,15.72
2022-08-23T09:22:52.420Z,15.74
2022-08-23T09:24:00.361Z,15.75
2022-08-23T09:25:05.552Z,15.76
2022-08-23T09:26:31.919Z,15.77
2022-08-23T09:27:35.993Z,15.82
2022-08-23T09:28:39.114Z,15.83
2022-08-23T09:29:51.778Z,15.85
2022-08-23T09:30:56.763Z,15.86
2022-08-23T09:32:04.774Z,15.87
2022-08-23T09:33:18.049Z,15.89
2022-08-23T09:34:30.554Z,15.85
2022-08-23T09:35:33.614Z,15.85
2022-08-23T09:36:39.530Z,15.86
2022-08-23T09:38:07.054Z,15.88
2022-08-23T09:39:30.444Z,15.91
2022-08-23T09:40:52.840Z,15.93
2022-08-23T09:41:55.890Z,15.95
2022-08-23T09:43:05.499Z,15.96
2022-08-23T09:44:09.897Z,15.98
2022-08-23T09:45:35.594Z,16.00
2022-08-23T09:46:42.141Z,16.03
2022-08-23T09:47:45.556Z,16.05
2022-08-23T09:48:48.789Z,16.05
2022-08-23T09:49:52.674Z,16.07
2022-08-23T09:50:56.289Z,16.05
2022-08-23T09:52:01.219Z,16.03
2022-08-23T09:53:06.849Z,16.03
2022-08-23T09:54:33.348Z,16.05
2022-08-23T09:55:57.435Z,16.02
2022-08-23T09:57:02.883Z,16.01
2022-08-23T09:58:17.054Z,15.98
2022-08-23T09:59:26.752Z,15.98
2022-08-23T10:00:34.312Z,16.00
2022-08-23T10:01:39.211Z,16.00
2022-08-23T10:02:42.557Z,16.01
2022-08-23T10:03:46.458Z,16.03
2022-08-23T10:05:04.666Z,16.06
2022-08-23T10:06:09.997Z,16.08
2022-08-23T10:07:33.082Z,16.11
2022-08-23T10:08:50.632Z,16.13
2022-08-23T10:10:14.069Z,16.17
2022-08-23T10:11:18.889Z,16.20
2022-08-23T10:12:24.099Z,16.20
2022-08-23T10:13:28.289Z,16.26
2022-08-23T10:14:33.950Z,16.23
2022-08-23T10:15:56.042Z,16.22
2022-08-23T10:16:58.884Z,16.24
2022-08-23T10:18:11.390Z,16.24
2022-08-23T10:19:40.559Z,16.26
2022-08-23T10:20:52.484Z,16.30
2022-08-23T10:22:04.068Z,16.33
2022-08-23T10:23:06.984Z,16.35
2022-08-23T10:24:28.774Z,16.37
2022-08-23T10:25:40.739Z,16.40
2022-08-23T10:27:26.832Z,16.42
2022-08-23T10:28:48.440Z,16.46
2022-08-23T10:29:53.187Z,16.44
2022-08-23T10:30:59.921Z,16.46
2022-08-23T10:32:09.092Z,16.43
2022-08-23T10:33:18.434Z,16.49
2022-08-23T10:34:39.026Z,16.41
2022-08-23T10:35:42.135Z,16.48
2022-08-23T10:36:47.774Z,16.51
2022-08-23T10:38:13.284Z,16.54
2022-08-23T10:39:27.423Z,16.59
2022-08-23T10:41:06.289Z,16.64
2022-08-23T10:42:18.947Z,16.72
2022-08-23T10:43:31.092Z,16.75
2022-08-23T10:44:52.613Z,16.79
2022-08-23T10:46:00.855Z,16.85
2022-08-23T10:47:10.303Z,16.89
2022-08-23T10:48:13.560Z,16.94
2022-08-23T10:49:17.339Z,16.99
2022-08-23T10:50:23.500Z,17.03
2022-08-23T10:51:42.104Z,17.07
2022-08-23T10:52:54.549Z,17.10
2022-08-23T10:54:00.909Z,17.09
2022-08-23T10:55:17.089Z,17.08
2022-08-23T10:56:21.448Z,17.06
2022-08-23T10:57:29.149Z,17.10
2022-08-23T10:58:44.109Z,17.11
2022-08-23T10:59:50.959Z,17.10
2022-08-23T11:00:54.558Z,17.07
2022-08-23T11:02:19.859Z,17.05
2022-08-23T11:03:29.191Z,17.04
2022-08-23T11:04:51.170Z,17.04
2022-08-23T11:06:14.551Z,17.02
2022-08-23T11:07:23.080Z,17.04
2022-08-23T11:08:34.065Z,17.04
2022-08-23T11:09:47.023Z,17.03
2022-08-23T11:10:56.175Z,17.04
2022-08-23T11:12:02.573Z,17.03
2022-08-23T11:13:20.990Z,17.03
2022-08-23T11:14:26.953Z,17.04
2022-08-23T11:15:48.995Z,17.04
2022-08-23T11:16:56.003Z,17.06
2022-08-23T11:18:02.038Z,17.06
2022-08-23T11:19:11.275Z,17.08
2022-08-23T11:20:36.019Z,17.11
2022-08-23T11:21:40.798Z,17.12
2022-08-23T11:23:02.790Z,17.14
2022-08-23T11:24:06.199Z,17.15
2022-08-23T11:25:16.015Z,17.16
2022-08-23T11:26:22.737Z,17.20
2022-08-23T11:27:30.728Z,17.22
2022-08-23T11:28:37.911Z,17.26
2022-08-23T11:29:43.385Z,17.30
2022-08-23T11:30:50.216Z,17.33
2022-08-23T11:32:13.156Z,17.37
2022-08-23T11:33:45.895Z,17.38
2022-08-23T11:34:54.707Z,17.40
2022-08-23T11:36:10.023Z,17.42
2022-08-23T11:37:19.108Z,17.45
2022-08-23T11:38:40.915Z,17.47
2022-08-23T11:39:59.533Z,17.49
2022-08-23T11:41:12.897Z,17.48
2022-08-23T11:42:19.601Z,17.46
2022-08-23T11:43:22.650Z,17.46
2022-08-23T11:44:41.211Z,17.47
2022-08-23T11:45:46.663Z,17.46
2022-08-23T11:46:54.050Z,17.47
2022-08-23T11:48:23.562Z,17.48
2022-08-23T11:49:29.642Z,17.53
2022-08-23T11:50:39.451Z,17.56
2022-08-23T11:51:52.758Z,17.59
2022-08-23T11:53:15.276Z,17.61
2022-08-23T11:54:39.639Z,17.59
2022-08-23T11:56:06.236Z,17.61
2022-08-23T11:57:18.699Z,17.63
2022-08-23T11:58:24.076Z,17.66
2022-08-23T11:59:41.869Z,17.67
2022-08-23T12:00:53.636Z,17.68
2022-08-23T12:01:56.950Z,17.69
2022-08-23T12:03:18.723Z,17.70
2022-08-23T12:04:33.859Z,17.69
2022-08-23T12:05:41.611Z,17.66
2022-08-23T12:06:50.916Z,17.64
2022-08-23T12:07:54.325Z,17.64
2022-08-23T12:09:02.303Z,17.64
2022-08-23T12:10:06.288Z,17.65
2022-08-23T12:11:10.319Z,17.59
2022-08-23T12:12:27.208Z,17.66
2022-08-23T12:13:33.035Z,17.65
2022-08-23T12:14:56.378Z,17.64
2022-08-23T12:16:29.163Z,17.61
2022-08-23T12:17:40.302Z,17.63
2022-08-23T12:18:49.371Z,17.63
2022-08-23T12:19:55.015Z,17.65
2022-08-23T12:21:00.622Z,17.68
2022-08-23T12:22:14.515Z,17.72
2022-08-23T12:23:19.199Z,17.76
2022-08-23T12:24:22.094Z,17.79
2022-08-23T12:25:25.746Z,17.81
2022-08-23T12:26:35.310Z,17.80
2022-08-23T12:27:47.134Z,17.79
2022-08-23T12:28:54.073Z,17.79
2022-08-23T12:29:59.979Z,17.79
2022-08-23T12:31:18.927Z,17.80
2022-08-23T12:32:22.267Z,17.80
2022-08-23T12:33:51.249Z,17.80
2022-08-23T12:35:14.752Z,17.80
2022-08-23T12:36:21.756Z,17.81
2022-08-23T12:37:43.194Z,17.81
2022-08-23T12:38:49.218Z,17.79
2022-08-23T12:39:56.781Z,17.80
2022-08-23T12:41:12.280Z,17.79
2022-08-23T12:42:17.187Z,17.81
2022-08-23T12:43:23.050Z,17.82
2022-08-23T12:44:28.480Z,17.85
2022-08-23T12:45:37.604Z,17.85
2022-08-23T12:46:45.291Z,17.85
2022-08-23T12:47:58.689Z,17.83
2022-08-23T12:49:02.094Z,17.82
2022-08-23T12:50:05.338Z,17.79
2022-08-23T12:51:11.101Z,17.77
2022-08-23T12:52:14.069Z,17.75
2022-08-23T12:53:25.619Z,17.73
2022-08-23T12:54:42.749Z,17.74
2022-08-23T12:55:48.258Z,17.71
2022-08-23T12:56:53.221Z,17.69
2022-08-23T12:57:58.291Z,17.66
2022-08-23T12:59:05.016Z,17.65
2022-08-23T13:00:17.186Z,17.63
2022-08-23T13:01:24.406Z,17.57
2022-08-23T13:02:37.292Z,17.53
2022-08-23T13:03:43.910Z,17.49
2022-08-23T13:04:47.066Z,17.50
2022-08-23T13:05:53.074Z,17.50
2022-08-23T13:06:58.322Z,17.50
2022-08-23T13:08:02.890Z,17.51
2022-08-23T13:09:09.848Z,17.50
2022-08-23T13:10:14.696Z,17.47
2022-08-23T13:11:22.088Z,17.45
2022-08-23T13:12:27.354Z,17.43
2022-08-23T13:13:31.051Z,17.41
2022-08-23T13:14:43.622Z,17.40
2022-08-23T13:15:58.329Z,17.39
2022-08-23T13:17:17.407Z,17.35
2022-08-23T13:18:25.491Z,17.34
2022-08-23T13:19:34.308Z,17.36
2022-08-23T13:20:39.357Z,17.35
2022-08-23T13:21:43.016Z,17.33
2022-08-23T13:22:57.348Z,17.35
2022-08-23T13:24:02.275Z,17.36
2022-08-23T13:25:29.213Z,17.38
2022-08-23T13:26:33.865Z,17.39
2022-08-23T13:27:53.116Z,17.40
2022-08-23T13:29:02.555Z,17.42
2022-08-23T13:30:09.558Z,17.40
2022-08-23T13:31:13.176Z,17.40
2022-08-23T13:32:47.075Z,17.39
2022-08-23T13:33:54.201Z,17.37
2022-08-23T13:35:16.496Z,17.36
2022-08-23T13:36:21.581Z,17.37
2022-08-23T13:37:32.098Z,17.37
2022-08-23T13:38:35.670Z,17.37
2022-08-23T13:39:38.747Z,17.37
2022-08-23T13:40:50.229Z,17.35
2022-08-23T13:41:53.561Z,17.34
2022-08-23T13:43:02.531Z,17.35
2022-08-23T13:44:07.077Z,17.35
2022-08-23T13:45:14.712Z,17.35
2022-08-23T13:46:22.260Z,17.35
2022-08-23T13:47:27.949Z,17.35
2022-08-23T13:48:32.274Z,17.37
2022-08-23T13:49:36.872Z,17.39
2022-08-23T13:50:40.698Z,17.41
2022-08-23T13:52:33.308Z,17.42
2022-08-23T13:53:29.620Z,17.43
2022-08-23T13:54:33.898Z,17.42
2022-08-23T13:55:48.041Z,17.43
2022-08-23T13:56:56.334Z,17.41
2022-08-23T13:57:59.394Z,17.40
2022-08-23T13:59:05.788Z,17.38
2022-08-23T14:00:10.798Z,17.37
2022-08-23T14:01:19.900Z,17.35
2022-08-23T14:02:23.920Z,17.34
2022-08-23T14:03:27.964Z,17.34
2022-08-23T14:04:32.130Z,17.32
2022-08-23T14:05:35.679Z,17.29
2022-08-23T14:06:38.894Z,17.28
2022-08-23T14:07:41.865Z,17.22
2022-08-23T14:08:44.905Z,17.21
2022-08-23T14:09:50.094Z,17.19
2022-08-23T14:10:55.124Z,17.19
2022-08-23T14:11:59.123Z,17.17
2022-08-23T14:13:02.435Z,17.14
2022-08-23T14:14:06.527Z,17.12
2022-08-23T14:15:09.698Z,17.09
2022-08-23T14:17:42.387Z,17.05
2022-08-23T14:21:33.253Z,16.95
2022-08-23T14:22:36.512Z,16.92
2022-08-23T14:23:39.885Z,16.89
2022-08-23T14:24:43.665Z,16.84
2022-08-23T14:25:51.559Z,16.82
2022-08-23T14:26:55.598Z,16.81
2022-08-23T14:28:00.912Z,16.79
2022-08-23T14:29:04.617Z,16.78
2022-08-23T14:30:09.353Z,16.77
2022-08-23T14:31:12.812Z,16.77